sensor_id;sensor_type;location;lat;lon;timestamp;pressure;altitude;pressure_sealevel;temperature;humidity
42415;BME280;28058;46.344;17.786;2023-01-09T00:00:58;118336.50;;;-144.97;83.68
42415;BME280;28058;46.344;17.786;2023-01-09T00:03:25;118336.50;;;-144.97;83.18
42415;BME280;28058;46.344;17.786;2023-01-09T00:05:52;118336.50;;;-144.97;83.16
42415;BME280;28058;46.344;17.786;2023-01-09T00:08:19;118336.50;;;-144.97;83.13
42415;BME280;28058;46.344;17.786;2023-01-09T00:10:47;118336.50;;;-144.97;84.54
42415;BME280;28058;46.344;17.786;2023-01-09T00:13:14;118336.50;;;-144.97;83.11
42415;BME280;28058;46.344;17.786;2023-01-09T00:15:43;118336.50;;;-144.97;83.43
42415;BME280;28058;46.344;17.786;2023-01-09T00:18:10;118336.50;;;-144.97;83.64
42415;BME280;28058;46.344;17.786;2023-01-09T00:20:37;118336.50;;;-144.97;83.37
42415;BME280;28058;46.344;17.786;2023-01-09T00:23:04;118336.50;;;-144.97;84.10
42415;BME280;28058;46.344;17.786;2023-01-09T00:25:31;118336.50;;;-144.97;85.24
42415;BME280;28058;46.344;17.786;2023-01-09T00:27:58;118336.50;;;-144.97;85.27
42415;BME280;28058;46.344;17.786;2023-01-09T00:30:25;118336.50;;;-144.97;85.28
42415;BME280;28058;46.344;17.786;2023-01-09T00:32:54;118336.50;;;-144.97;85.58
42415;BME280;28058;46.344;17.786;2023-01-09T00:35:23;118336.50;;;-144.97;85.79
42415;BME280;28058;46.344;17.786;2023-01-09T00:37:50;118336.50;;;-144.97;85.49
42415;BME280;28058;46.344;17.786;2023-01-09T00:40:18;118336.50;;;-144.97;84.66
42415;BME280;28058;46.344;17.786;2023-01-09T00:42:49;118336.50;;;-144.97;85.26
42415;BME280;28058;46.344;17.786;2023-01-09T00:45:20;118336.50;;;-144.97;85.62
42415;BME280;28058;46.344;17.786;2023-01-09T00:48:00;118336.50;;;-144.97;84.91
42415;BME280;28058;46.344;17.786;2023-01-09T00:50:30;118336.50;;;-144.97;84.57
42415;BME280;28058;46.344;17.786;2023-01-09T00:53:01;118336.50;;;-144.97;83.86
42415;BME280;28058;46.344;17.786;2023-01-09T00:55:29;118336.50;;;-144.97;83.98
42415;BME280;28058;46.344;17.786;2023-01-09T00:57:56;118336.50;;;-144.97;84.72
42415;BME280;28058;46.344;17.786;2023-01-09T01:00:23;118336.50;;;-144.97;85.10
42415;BME280;28058;46.344;17.786;2023-01-09T01:02:51;118336.50;;;-144.97;85.14
42415;BME280;28058;46.344;17.786;2023-01-09T01:05:18;118336.50;;;-144.97;85.41
42415;BME280;28058;46.344;17.786;2023-01-09T01:08:10;118336.50;;;-144.97;84.54
42415;BME280;28058;46.344;17.786;2023-01-09T01:10:37;118336.50;;;-144.97;83.21
42415;BME280;28058;46.344;17.786;2023-01-09T01:13:05;118336.50;;;-144.97;83.32
42415;BME280;28058;46.344;17.786;2023-01-09T01:15:33;118336.50;;;-144.97;83.92
42415;BME280;28058;46.344;17.786;2023-01-09T01:18:00;118336.50;;;-144.97;83.33
42415;BME280;28058;46.344;17.786;2023-01-09T01:20:27;118336.50;;;-144.97;83.98
42415;BME280;28058;46.344;17.786;2023-01-09T01:22:54;118336.50;;;-144.97;84.70
42415;BME280;28058;46.344;17.786;2023-01-09T01:25:22;118336.50;;;-144.97;85.19
42415;BME280;28058;46.344;17.786;2023-01-09T01:27:49;118336.50;;;-144.97;86.04
42415;BME280;28058;46.344;17.786;2023-01-09T01:30:17;118336.50;;;-144.97;86.60
42415;BME280;28058;46.344;17.786;2023-01-09T01:32:45;118336.50;;;-144.97;87.02
42415;BME280;28058;46.344;17.786;2023-01-09T01:35:12;118336.50;;;-144.97;86.08
42415;BME280;28058;46.344;17.786;2023-01-09T01:37:40;118336.50;;;-144.97;86.57
42415;BME280;28058;46.344;17.786;2023-01-09T01:40:08;118336.50;;;-144.97;87.19
42415;BME280;28058;46.344;17.786;2023-01-09T01:42:35;118336.50;;;-144.97;87.68
42415;BME280;28058;46.344;17.786;2023-01-09T01:50:34;118336.50;;;-144.97;88.30
42415;BME280;28058;46.344;17.786;2023-01-09T01:56:12;118336.50;;;-144.97;88.46
42415;BME280;28058;46.344;17.786;2023-01-09T01:58:50;118336.50;;;-144.97;88.67
42415;BME280;28058;46.344;17.786;2023-01-09T02:01:19;118336.50;;;-144.97;88.86
42415;BME280;28058;46.344;17.786;2023-01-09T02:03:48;118336.50;;;-144.97;89.95
42415;BME280;28058;46.344;17.786;2023-01-09T02:06:17;118336.50;;;-144.97;89.70
42415;BME280;28058;46.344;17.786;2023-01-09T02:08:44;118336.50;;;-144.97;89.94
42415;BME280;28058;46.344;17.786;2023-01-09T02:11:12;118336.50;;;-144.97;89.81
42415;BME280;28058;46.344;17.786;2023-01-09T02:13:41;118336.50;;;-144.97;90.92
42415;BME280;28058;46.344;17.786;2023-01-09T02:19:21;118336.50;;;-144.97;91.16
42415;BME280;28058;46.344;17.786;2023-01-09T02:22:16;118336.50;;;-144.97;91.66
42415;BME280;28058;46.344;17.786;2023-01-09T02:24:56;118336.50;;;-144.97;92.18
42415;BME280;28058;46.344;17.786;2023-01-09T02:27:54;118336.50;;;-144.97;92.92
42415;BME280;28058;46.344;17.786;2023-01-09T02:35:58;118336.50;;;-144.97;94.32
42415;BME280;28058;46.344;17.786;2023-01-09T02:43:33;118336.50;;;-144.97;94.96
42415;BME280;28058;46.344;17.786;2023-01-09T02:46:00;118336.50;;;-144.97;94.73
42415;BME280;28058;46.344;17.786;2023-01-09T02:48:27;118336.50;;;-144.97;94.70
42415;BME280;28058;46.344;17.786;2023-01-09T02:56:24;118336.50;;;-144.97;94.26
42415;BME280;28058;46.344;17.786;2023-01-09T03:01:31;118336.50;;;-144.97;94.23
42415;BME280;28058;46.344;17.786;2023-01-09T03:04:10;118336.50;;;-144.97;94.48
42415;BME280;28058;46.344;17.786;2023-01-09T03:06:57;118336.50;;;-144.97;95.65
42415;BME280;28058;46.344;17.786;2023-01-09T03:09:26;118336.50;;;-144.97;94.65
42415;BME280;28058;46.344;17.786;2023-01-09T03:11:57;118336.50;;;-144.97;95.23
42415;BME280;28058;46.344;17.786;2023-01-09T03:14:26;118336.50;;;-144.97;94.46
42415;BME280;28058;46.344;17.786;2023-01-09T03:16:57;118336.50;;;-144.97;94.54
42415;BME280;28058;46.344;17.786;2023-01-09T03:19:25;118336.50;;;-144.97;94.31
42415;BME280;28058;46.344;17.786;2023-01-09T03:21:55;118336.50;;;-144.97;94.23
42415;BME280;28058;46.344;17.786;2023-01-09T03:24:22;118336.50;;;-144.97;93.91
42415;BME280;28058;46.344;17.786;2023-01-09T03:26:49;118336.50;;;-144.97;94.34
42415;BME280;28058;46.344;17.786;2023-01-09T03:29:16;118336.50;;;-144.97;94.41
42415;BME280;28058;46.344;17.786;2023-01-09T03:31:43;118336.50;;;-144.97;94.37
42415;BME280;28058;46.344;17.786;2023-01-09T03:34:10;118336.50;;;-144.97;93.89
42415;BME280;28058;46.344;17.786;2023-01-09T03:36:37;118336.50;;;-144.97;93.83
42415;BME280;28058;46.344;17.786;2023-01-09T03:39:04;118336.50;;;-144.97;93.73
42415;BME280;28058;46.344;17.786;2023-01-09T03:41:31;118336.50;;;-144.97;93.60
42415;BME280;28058;46.344;17.786;2023-01-09T03:43:58;118336.50;;;-144.97;93.26
42415;BME280;28058;46.344;17.786;2023-01-09T03:46:25;118336.50;;;-144.97;93.16
42415;BME280;28058;46.344;17.786;2023-01-09T03:48:52;118336.50;;;-144.97;92.42
42415;BME280;28058;46.344;17.786;2023-01-09T03:51:19;118336.50;;;-144.97;93.00
42415;BME280;28058;46.344;17.786;2023-01-09T03:53:46;118336.50;;;-144.97;93.26
42415;BME280;28058;46.344;17.786;2023-01-09T03:56:13;118336.50;;;-144.97;93.04
42415;BME280;28058;46.344;17.786;2023-01-09T03:58:40;118336.50;;;-144.97;92.52
42415;BME280;28058;46.344;17.786;2023-01-09T04:01:07;118336.50;;;-144.97;93.28
42415;BME280;28058;46.344;17.786;2023-01-09T04:03:38;118336.50;;;-144.97;96.15
42415;BME280;28058;46.344;17.786;2023-01-09T04:06:05;118336.50;;;-144.97;99.01
42415;BME280;28058;46.344;17.786;2023-01-09T04:08:32;118336.50;;;-144.97;100.00
42415;BME280;28058;46.344;17.786;2023-01-09T04:10:59;118336.50;;;-144.97;100.00
42415;BME280;28058;46.344;17.786;2023-01-09T04:13:26;118336.50;;;-144.97;100.00
42415;BME280;28058;46.344;17.786;2023-01-09T04:15:53;118336.50;;;-144.97;100.00
42415;BME280;28058;46.344;17.786;2023-01-09T04:18:20;118336.50;;;-144.97;100.00
42415;BME280;28058;46.344;17.786;2023-01-09T04:20:47;118336.50;;;-144.97;100.00
42415;BME280;28058;46.344;17.786;2023-01-09T04:23:14;118336.50;;;-144.97;100.00
42415;BME280;28058;46.344;17.786;2023-01-09T04:25:40;118336.50;;;-144.97;100.00
42415;BME280;28058;46.344;17.786;2023-01-09T04:28:07;118336.50;;;-144.97;100.00
42415;BME280;28058;46.344;17.786;2023-01-09T04:30:34;118336.50;;;-144.97;100.00
42415;BME280;28058;46.344;17.786;2023-01-09T04:33:01;118336.50;;;-144.97;100.00
42415;BME280;28058;46.344;17.786;2023-01-09T04:35:28;118336.50;;;-144.97;100.00
42415;BME280;28058;46.344;17.786;2023-01-09T04:37:54;118336.50;;;-144.97;100.00
42415;BME280;28058;46.344;17.786;2023-01-09T04:40:21;118336.50;;;-144.97;100.00
42415;BME280;28058;46.344;17.786;2023-01-09T04:42:48;118336.50;;;-144.97;100.00
42415;BME280;28058;46.344;17.786;2023-01-09T04:45:14;118336.50;;;-144.97;100.00
42415;BME280;28058;46.344;17.786;2023-01-09T04:47:42;118336.50;;;-144.97;100.00
42415;BME280;28058;46.344;17.786;2023-01-09T04:50:10;118336.50;;;-144.97;100.00
42415;BME280;28058;46.344;17.786;2023-01-09T04:52:37;118336.50;;;-144.97;100.00
42415;BME280;28058;46.344;17.786;2023-01-09T04:55:04;118336.50;;;-144.97;100.00
42415;BME280;28058;46.344;17.786;2023-01-09T04:57:31;118336.50;;;-144.97;100.00
42415;BME280;28058;46.344;17.786;2023-01-09T04:59:58;118336.50;;;-144.97;100.00
42415;BME280;28058;46.344;17.786;2023-01-09T05:02:25;118336.50;;;-144.97;100.00
42415;BME280;28058;46.344;17.786;2023-01-09T05:04:51;118336.50;;;-144.97;100.00
42415;BME280;28058;46.344;17.786;2023-01-09T05:07:18;118336.50;;;-144.97;100.00
42415;BME280;28058;46.344;17.786;2023-01-09T05:09:45;118336.50;;;-144.97;100.00
42415;BME280;28058;46.344;17.786;2023-01-09T05:12:11;118336.50;;;-144.97;100.00
42415;BME280;28058;46.344;17.786;2023-01-09T05:14:38;118336.50;;;-144.97;100.00
42415;BME280;28058;46.344;17.786;2023-01-09T05:17:04;118336.50;;;-144.97;100.00
42415;BME280;28058;46.344;17.786;2023-01-09T05:19:31;118336.50;;;-144.97;100.00
42415;BME280;28058;46.344;17.786;2023-01-09T05:21:58;118336.50;;;-144.97;100.00
42415;BME280;28058;46.344;17.786;2023-01-09T05:24:24;118336.50;;;-144.97;100.00
42415;BME280;28058;46.344;17.786;2023-01-09T05:26:51;118336.50;;;-144.97;100.00
42415;BME280;28058;46.344;17.786;2023-01-09T05:29:18;118336.50;;;-144.97;100.00
42415;BME280;28058;46.344;17.786;2023-01-09T05:31:45;118336.50;;;-144.97;100.00
42415;BME280;28058;46.344;17.786;2023-01-09T05:34:11;118336.50;;;-144.97;100.00
42415;BME280;28058;46.344;17.786;2023-01-09T05:36:38;118336.50;;;-144.97;100.00
42415;BME280;28058;46.344;17.786;2023-01-09T05:39:05;118336.50;;;-144.97;100.00
42415;BME280;28058;46.344;17.786;2023-01-09T05:41:32;118336.50;;;-144.97;100.00
42415;BME280;28058;46.344;17.786;2023-01-09T05:43:59;118336.50;;;-144.97;100.00
42415;BME280;28058;46.344;17.786;2023-01-09T05:46:26;118336.50;;;-144.97;100.00
42415;BME280;28058;46.344;17.786;2023-01-09T05:48:52;118336.50;;;-144.97;100.00
42415;BME280;28058;46.344;17.786;2023-01-09T05:51:19;118336.50;;;-144.97;100.00
42415;BME280;28058;46.344;17.786;2023-01-09T05:53:46;118336.50;;;-144.97;100.00
42415;BME280;28058;46.344;17.786;2023-01-09T05:56:12;118336.50;;;-144.97;100.00
42415;BME280;28058;46.344;17.786;2023-01-09T05:58:39;118336.50;;;-144.97;100.00
42415;BME280;28058;46.344;17.786;2023-01-09T06:01:06;118336.50;;;-144.97;100.00
42415;BME280;28058;46.344;17.786;2023-01-09T06:03:33;118336.50;;;-144.97;100.00
42415;BME280;28058;46.344;17.786;2023-01-09T06:06:00;118336.50;;;-144.97;100.00
42415;BME280;28058;46.344;17.786;2023-01-09T06:08:27;118336.50;;;-144.97;100.00
42415;BME280;28058;46.344;17.786;2023-01-09T06:10:53;118336.50;;;-144.97;100.00
42415;BME280;28058;46.344;17.786;2023-01-09T06:13:20;118336.50;;;-144.97;100.00
42415;BME280;28058;46.344;17.786;2023-01-09T06:15:47;118336.50;;;-144.97;100.00
42415;BME280;28058;46.344;17.786;2023-01-09T06:18:14;118336.50;;;-144.97;100.00
42415;BME280;28058;46.344;17.786;2023-01-09T06:20:42;118336.50;;;-144.97;100.00
42415;BME280;28058;46.344;17.786;2023-01-09T06:23:09;118336.50;;;-144.97;100.00
42415;BME280;28058;46.344;17.786;2023-01-09T06:25:38;118336.50;;;-144.97;100.00
42415;BME280;28058;46.344;17.786;2023-01-09T06:28:05;118336.50;;;-144.97;100.00
42415;BME280;28058;46.344;17.786;2023-01-09T06:30:32;118336.50;;;-144.97;100.00
42415;BME280;28058;46.344;17.786;2023-01-09T06:32:59;118336.50;;;-144.97;100.00
42415;BME280;28058;46.344;17.786;2023-01-09T06:35:26;118336.50;;;-144.97;100.00
42415;BME280;28058;46.344;17.786;2023-01-09T06:37:52;118336.50;;;-144.97;100.00
42415;BME280;28058;46.344;17.786;2023-01-09T06:40:19;118336.50;;;-144.97;100.00
42415;BME280;28058;46.344;17.786;2023-01-09T06:42:46;118336.50;;;-144.97;100.00
42415;BME280;28058;46.344;17.786;2023-01-09T06:45:14;118336.50;;;-144.97;100.00
42415;BME280;28058;46.344;17.786;2023-01-09T06:47:41;118336.50;;;-144.97;100.00
42415;BME280;28058;46.344;17.786;2023-01-09T06:50:08;118336.50;;;-144.97;100.00
42415;BME280;28058;46.344;17.786;2023-01-09T06:52:35;118336.50;;;-144.97;100.00
42415;BME280;28058;46.344;17.786;2023-01-09T06:55:02;118336.50;;;-144.97;100.00
42415;BME280;28058;46.344;17.786;2023-01-09T06:57:29;118336.50;;;-144.97;100.00
42415;BME280;28058;46.344;17.786;2023-01-09T06:59:55;118336.50;;;-144.97;100.00
42415;BME280;28058;46.344;17.786;2023-01-09T07:02:23;118336.50;;;-144.97;100.00
42415;BME280;28058;46.344;17.786;2023-01-09T07:04:50;118336.50;;;-144.97;100.00
42415;BME280;28058;46.344;17.786;2023-01-09T07:07:16;118336.50;;;-144.97;100.00
42415;BME280;28058;46.344;17.786;2023-01-09T07:09:45;118336.50;;;-144.97;100.00
42415;BME280;28058;46.344;17.786;2023-01-09T07:12:11;118336.50;;;-144.97;100.00
42415;BME280;28058;46.344;17.786;2023-01-09T07:14:38;118336.50;;;-144.97;100.00
42415;BME280;28058;46.344;17.786;2023-01-09T07:17:05;118336.50;;;-144.97;100.00
42415;BME280;28058;46.344;17.786;2023-01-09T07:19:31;118336.50;;;-144.97;100.00
42415;BME280;28058;46.344;17.786;2023-01-09T07:21:58;118336.50;;;-144.97;100.00
42415;BME280;28058;46.344;17.786;2023-01-09T07:24:25;118336.50;;;-144.97;100.00
42415;BME280;28058;46.344;17.786;2023-01-09T07:26:51;118336.50;;;-144.97;100.00
42415;BME280;28058;46.344;17.786;2023-01-09T07:29:18;118336.50;;;-144.97;100.00
42415;BME280;28058;46.344;17.786;2023-01-09T07:31:45;118336.50;;;-144.97;100.00
42415;BME280;28058;46.344;17.786;2023-01-09T07:34:12;118336.50;;;-144.97;100.00
42415;BME280;28058;46.344;17.786;2023-01-09T07:36:39;118336.50;;;-144.97;100.00
42415;BME280;28058;46.344;17.786;2023-01-09T07:39:06;118336.50;;;-144.97;100.00
42415;BME280;28058;46.344;17.786;2023-01-09T07:41:34;118336.50;;;-144.97;100.00
42415;BME280;28058;46.344;17.786;2023-01-09T07:44:00;118336.50;;;-144.97;100.00
42415;BME280;28058;46.344;17.786;2023-01-09T07:46:27;118336.50;;;-144.97;100.00
42415;BME280;28058;46.344;17.786;2023-01-09T07:48:54;118336.50;;;-144.97;100.00
42415;BME280;28058;46.344;17.786;2023-01-09T07:51:21;118336.50;;;-144.97;100.00
42415;BME280;28058;46.344;17.786;2023-01-09T07:53:48;118336.50;;;-144.97;100.00
42415;BME280;28058;46.344;17.786;2023-01-09T07:56:14;118336.50;;;-144.97;100.00
42415;BME280;28058;46.344;17.786;2023-01-09T07:58:41;118336.50;;;-144.97;100.00
42415;BME280;28058;46.344;17.786;2023-01-09T08:01:09;118336.50;;;-144.97;100.00
42415;BME280;28058;46.344;17.786;2023-01-09T08:03:36;118336.50;;;-144.97;100.00
42415;BME280;28058;46.344;17.786;2023-01-09T08:06:03;118336.50;;;-144.97;100.00
42415;BME280;28058;46.344;17.786;2023-01-09T08:08:30;118336.50;;;-144.97;100.00
42415;BME280;28058;46.344;17.786;2023-01-09T08:10:56;118336.50;;;-144.97;100.00
42415;BME280;28058;46.344;17.786;2023-01-09T08:13:23;118336.50;;;-144.97;100.00
42415;BME280;28058;46.344;17.786;2023-01-09T08:15:50;118336.50;;;-144.97;100.00
42415;BME280;28058;46.344;17.786;2023-01-09T08:18:17;118336.50;;;-144.97;100.00
42415;BME280;28058;46.344;17.786;2023-01-09T08:20:43;118336.50;;;-144.97;100.00
42415;BME280;28058;46.344;17.786;2023-01-09T08:23:10;118336.50;;;-144.97;100.00
42415;BME280;28058;46.344;17.786;2023-01-09T08:25:36;118336.50;;;-144.97;100.00
42415;BME280;28058;46.344;17.786;2023-01-09T08:28:03;118336.50;;;-144.97;100.00
42415;BME280;28058;46.344;17.786;2023-01-09T08:30:30;118336.50;;;-144.97;100.00
42415;BME280;28058;46.344;17.786;2023-01-09T08:32:57;118336.50;;;-144.97;100.00
42415;BME280;28058;46.344;17.786;2023-01-09T08:35:23;118336.50;;;-144.97;100.00
42415;BME280;28058;46.344;17.786;2023-01-09T08:37:50;118336.50;;;-144.97;100.00
42415;BME280;28058;46.344;17.786;2023-01-09T08:40:16;118336.50;;;-144.97;100.00
42415;BME280;28058;46.344;17.786;2023-01-09T08:42:44;118336.50;;;-144.97;100.00
42415;BME280;28058;46.344;17.786;2023-01-09T08:45:29;118336.50;;;-144.97;100.00
42415;BME280;28058;46.344;17.786;2023-01-09T08:48:15;118336.50;;;-144.97;100.00
42415;BME280;28058;46.344;17.786;2023-01-09T08:50:42;118336.50;;;-144.97;100.00
42415;BME280;28058;46.344;17.786;2023-01-09T08:53:09;118336.50;;;-144.97;100.00
42415;BME280;28058;46.344;17.786;2023-01-09T08:55:36;118336.50;;;-144.97;100.00
42415;BME280;28058;46.344;17.786;2023-01-09T08:58:03;118336.50;;;-144.97;100.00
42415;BME280;28058;46.344;17.786;2023-01-09T09:00:29;118336.50;;;-144.97;100.00
42415;BME280;28058;46.344;17.786;2023-01-09T09:02:57;118336.50;;;-144.97;100.00
42415;BME280;28058;46.344;17.786;2023-01-09T09:05:25;118336.50;;;-144.97;100.00
42415;BME280;28058;46.344;17.786;2023-01-09T09:07:53;118336.50;;;-144.97;100.00
42415;BME280;28058;46.344;17.786;2023-01-09T09:10:22;118336.50;;;-144.97;100.00
42415;BME280;28058;46.344;17.786;2023-01-09T09:12:49;118336.50;;;-144.97;100.00
42415;BME280;28058;46.344;17.786;2023-01-09T09:15:16;118336.50;;;-144.97;100.00
42415;BME280;28058;46.344;17.786;2023-01-09T09:17:56;118336.50;;;-144.97;100.00
42415;BME280;28058;46.344;17.786;2023-01-09T09:20:24;118336.50;;;-144.97;100.00
42415;BME280;28058;46.344;17.786;2023-01-09T09:22:51;118336.50;;;-144.97;100.00
42415;BME280;28058;46.344;17.786;2023-01-09T09:25:18;118336.50;;;-144.97;100.00
42415;BME280;28058;46.344;17.786;2023-01-09T09:27:45;118336.50;;;-144.97;100.00
42415;BME280;28058;46.344;17.786;2023-01-09T09:30:13;118336.50;;;-144.97;100.00
42415;BME280;28058;46.344;17.786;2023-01-09T09:32:40;118336.50;;;-144.97;100.00
42415;BME280;28058;46.344;17.786;2023-01-09T09:35:07;118336.50;;;-144.97;100.00
42415;BME280;28058;46.344;17.786;2023-01-09T09:37:34;118336.50;;;-144.97;100.00
42415;BME280;28058;46.344;17.786;2023-01-09T09:40:01;118336.50;;;-144.97;100.00
42415;BME280;28058;46.344;17.786;2023-01-09T09:45:49;118336.50;;;-144.97;100.00
42415;BME280;28058;46.344;17.786;2023-01-09T09:48:35;118336.50;;;-144.97;100.00
42415;BME280;28058;46.344;17.786;2023-01-09T09:51:15;118336.50;;;-144.97;100.00
42415;BME280;28058;46.344;17.786;2023-01-09T09:56:22;118336.50;;;-144.97;100.00
42415;BME280;28058;46.344;17.786;2023-01-09T10:01:20;118336.50;;;-144.97;100.00
42415;BME280;28058;46.344;17.786;2023-01-09T10:03:52;118336.50;;;-144.97;100.00
42415;BME280;28058;46.344;17.786;2023-01-09T10:08:52;118336.50;;;-144.97;100.00
42415;BME280;28058;46.344;17.786;2023-01-09T10:11:24;118336.50;;;-144.97;100.00
42415;BME280;28058;46.344;17.786;2023-01-09T10:13:52;118336.50;;;-144.97;100.00
42415;BME280;28058;46.344;17.786;2023-01-09T10:16:57;118336.50;;;-144.97;100.00
42415;BME280;28058;46.344;17.786;2023-01-09T10:19:33;118336.50;;;-144.97;100.00
42415;BME280;28058;46.344;17.786;2023-01-09T10:35:17;118336.50;;;-144.97;100.00
42415;BME280;28058;46.344;17.786;2023-01-09T10:37:47;118336.50;;;-144.97;100.00
42415;BME280;28058;46.344;17.786;2023-01-09T10:42:52;118336.50;;;-144.97;100.00
42415;BME280;28058;46.344;17.786;2023-01-09T10:47:55;118336.50;;;-144.97;100.00
42415;BME280;28058;46.344;17.786;2023-01-09T10:50:27;118336.50;;;-144.97;100.00
42415;BME280;28058;46.344;17.786;2023-01-09T10:52:56;118336.50;;;-144.97;100.00
42415;BME280;28058;46.344;17.786;2023-01-09T10:55:45;118336.50;;;-144.97;100.00
42415;BME280;28058;46.344;17.786;2023-01-09T10:58:15;118336.50;;;-144.97;100.00
42415;BME280;28058;46.344;17.786;2023-01-09T11:00:42;118336.50;;;-144.97;100.00
42415;BME280;28058;46.344;17.786;2023-01-09T11:03:12;118336.50;;;-144.97;100.00
42415;BME280;28058;46.344;17.786;2023-01-09T11:05:40;118336.50;;;-144.97;100.00
42415;BME280;28058;46.344;17.786;2023-01-09T11:10:47;118336.50;;;-144.97;100.00
42415;BME280;28058;46.344;17.786;2023-01-09T11:13:25;118336.50;;;-144.97;100.00
42415;BME280;28058;46.344;17.786;2023-01-09T11:15:59;118336.50;;;-144.97;100.00
42415;BME280;28058;46.344;17.786;2023-01-09T11:18:26;118336.50;;;-144.97;100.00
42415;BME280;28058;46.344;17.786;2023-01-09T11:20:53;118336.50;;;-144.97;100.00
42415;BME280;28058;46.344;17.786;2023-01-09T11:23:24;118336.50;;;-144.97;100.00
42415;BME280;28058;46.344;17.786;2023-01-09T11:25:51;118336.50;;;-144.97;100.00
42415;BME280;28058;46.344;17.786;2023-01-09T11:28:19;118336.50;;;-144.97;100.00
42415;BME280;28058;46.344;17.786;2023-01-09T11:31:07;118336.50;;;-144.97;100.00
42415;BME280;28058;46.344;17.786;2023-01-09T11:33:33;118336.50;;;-144.97;100.00
42415;BME280;28058;46.344;17.786;2023-01-09T11:36:03;118336.50;;;-144.97;100.00
42415;BME280;28058;46.344;17.786;2023-01-09T11:38:32;118336.50;;;-144.97;100.00
42415;BME280;28058;46.344;17.786;2023-01-09T11:41:12;118336.50;;;-144.97;100.00
42415;BME280;28058;46.344;17.786;2023-01-09T11:43:43;118336.50;;;-144.97;100.00
42415;BME280;28058;46.344;17.786;2023-01-09T11:46:11;118336.50;;;-144.97;100.00
42415;BME280;28058;46.344;17.786;2023-01-09T11:48:56;118336.50;;;-144.97;100.00
42415;BME280;28058;46.344;17.786;2023-01-09T11:51:27;118336.50;;;-144.97;100.00
42415;BME280;28058;46.344;17.786;2023-01-09T11:56:23;118336.50;;;-144.97;100.00
42415;BME280;28058;46.344;17.786;2023-01-09T11:58:50;118336.50;;;-144.97;100.00
42415;BME280;28058;46.344;17.786;2023-01-09T12:09:27;118336.50;;;-144.97;100.00
42415;BME280;28058;46.344;17.786;2023-01-09T12:14:53;118336.50;;;-144.97;100.00
42415;BME280;28058;46.344;17.786;2023-01-09T12:20:23;118336.50;;;-144.97;100.00
42415;BME280;28058;46.344;17.786;2023-01-09T12:25:37;118336.50;;;-144.97;100.00
42415;BME280;28058;46.344;17.786;2023-01-09T12:35:43;118336.50;;;-144.97;100.00
42415;BME280;28058;46.344;17.786;2023-01-09T12:38:36;118336.50;;;-144.97;100.00
42415;BME280;28058;46.344;17.786;2023-01-09T12:43:54;118336.50;;;-144.97;100.00
42415;BME280;28058;46.344;17.786;2023-01-09T12:46:26;118336.50;;;-144.97;100.00
42415;BME280;28058;46.344;17.786;2023-01-09T12:59:43;118336.50;;;-144.97;100.00
42415;BME280;28058;46.344;17.786;2023-01-09T13:04:50;118336.50;;;-144.97;100.00
42415;BME280;28058;46.344;17.786;2023-01-09T13:07:22;118336.50;;;-144.97;100.00
42415;BME280;28058;46.344;17.786;2023-01-09T13:09:52;118336.50;;;-144.97;100.00
42415;BME280;28058;46.344;17.786;2023-01-09T13:12:20;118336.50;;;-144.97;100.00
42415;BME280;28058;46.344;17.786;2023-01-09T13:15:18;118336.50;;;-144.97;100.00
42415;BME280;28058;46.344;17.786;2023-01-09T13:17:48;118336.50;;;-144.97;100.00
42415;BME280;28058;46.344;17.786;2023-01-09T13:20:35;118336.50;;;-144.97;100.00
42415;BME280;28058;46.344;17.786;2023-01-09T13:23:04;118336.50;;;-144.97;100.00
42415;BME280;28058;46.344;17.786;2023-01-09T13:25:40;118336.50;;;-144.97;100.00
42415;BME280;28058;46.344;17.786;2023-01-09T13:28:23;118336.50;;;-144.97;100.00
42415;BME280;28058;46.344;17.786;2023-01-09T13:33:30;118336.50;;;-144.97;100.00
42415;BME280;28058;46.344;17.786;2023-01-09T13:35:59;118336.50;;;-144.97;100.00
42415;BME280;28058;46.344;17.786;2023-01-09T13:38:29;118336.50;;;-144.97;100.00
42415;BME280;28058;46.344;17.786;2023-01-09T13:41:05;118336.50;;;-144.97;100.00
42415;BME280;28058;46.344;17.786;2023-01-09T13:43:53;118336.50;;;-144.97;100.00
42415;BME280;28058;46.344;17.786;2023-01-09T13:46:20;118336.50;;;-144.97;100.00
42415;BME280;28058;46.344;17.786;2023-01-09T13:48:47;118336.50;;;-144.97;100.00
42415;BME280;28058;46.344;17.786;2023-01-09T13:54:13;118336.50;;;-144.97;100.00
42415;BME280;28058;46.344;17.786;2023-01-09T13:59:42;118336.50;;;-144.97;100.00
42415;BME280;28058;46.344;17.786;2023-01-09T14:04:55;118336.50;;;-144.97;100.00
42415;BME280;28058;46.344;17.786;2023-01-09T14:07:22;118336.50;;;-144.97;100.00
42415;BME280;28058;46.344;17.786;2023-01-09T14:09:54;118336.50;;;-144.97;100.00
42415;BME280;28058;46.344;17.786;2023-01-09T14:12:22;118336.50;;;-144.97;100.00
42415;BME280;28058;46.344;17.786;2023-01-09T14:14:49;118336.50;;;-144.97;100.00
42415;BME280;28058;46.344;17.786;2023-01-09T14:17:20;118336.50;;;-144.97;100.00
42415;BME280;28058;46.344;17.786;2023-01-09T14:19:51;118336.50;;;-144.97;100.00